sensor_id;sensor_type;location;lat;lon;timestamp;P1;durP1;ratioP1;P2;durP2;ratioP2
62997;SDS011;55949;52.590;7.330;2022-10-26T00:00:17;18.33;;;10.00;;
62997;SDS011;55949;52.590;7.330;2022-10-26T00:01:18;15.73;;;9.68;;
62997;SDS011;55949;52.590;7.330;2022-10-26T00:02:19;16.58;;;10.05;;
62997;SDS011;55949;52.590;7.330;2022-10-26T00:03:19;19.67;;;10.40;;
62997;SDS011;55949;52.590;7.330;2022-10-26T00:04:20;15.73;;;9.82;;
62997;SDS011;55949;52.590;7.330;2022-10-26T00:05:21;17.17;;;9.48;;
62997;SDS011;55949;52.590;7.330;2022-10-26T00:06:24;16.23;;;9.63;;
62997;SDS011;55949;52.590;7.330;2022-10-26T00:07:27;20.08;;;8.82;;
62997;SDS011;55949;52.590;7.330;2022-10-26T00:08:28;16.23;;;9.75;;
62997;SDS011;55949;52.590;7.330;2022-10-26T00:09:29;17.05;;;9.43;;
62997;SDS011;55949;52.590;7.330;2022-10-26T00:10:30;15.77;;;9.48;;
62997;SDS011;55949;52.590;7.330;2022-10-26T00:11:33;16.85;;;9.80;;
62997;SDS011;55949;52.590;7.330;2022-10-26T00:12:34;15.38;;;8.65;;
62997;SDS011;55949;52.590;7.330;2022-10-26T00:13:35;16.85;;;8.90;;
62997;SDS011;55949;52.590;7.330;2022-10-26T00:14:36;11.60;;;8.43;;
62997;SDS011;55949;52.590;7.330;2022-10-26T00:15:40;13.52;;;8.00;;
62997;SDS011;55949;52.590;7.330;2022-10-26T00:16:41;13.35;;;8.23;;
62997;SDS011;55949;52.590;7.330;2022-10-26T00:17:42;15.85;;;8.98;;
62997;SDS011;55949;52.590;7.330;2022-10-26T00:18:43;15.02;;;8.27;;
62997;SDS011;55949;52.590;7.330;2022-10-26T00:19:44;13.60;;;8.40;;
62997;SDS011;55949;52.590;7.330;2022-10-26T00:20:45;17.15;;;9.30;;
62997;SDS011;55949;52.590;7.330;2022-10-26T00:21:45;18.08;;;9.90;;
62997;SDS011;55949;52.590;7.330;2022-10-26T00:22:46;13.32;;;9.13;;
62997;SDS011;55949;52.590;7.330;2022-10-26T00:23:47;16.08;;;9.45;;
62997;SDS011;55949;52.590;7.330;2022-10-26T00:24:48;16.23;;;9.45;;
62997;SDS011;55949;52.590;7.330;2022-10-26T00:25:54;15.88;;;8.95;;
62997;SDS011;55949;52.590;7.330;2022-10-26T00:26:56;14.98;;;9.32;;
62997;SDS011;55949;52.590;7.330;2022-10-26T00:27:56;16.10;;;9.52;;
62997;SDS011;55949;52.590;7.330;2022-10-26T00:28:57;19.67;;;10.02;;
62997;SDS011;55949;52.590;7.330;2022-10-26T00:29:58;21.63;;;11.10;;
62997;SDS011;55949;52.590;7.330;2022-10-26T00:31:00;20.27;;;10.60;;
62997;SDS011;55949;52.590;7.330;2022-10-26T00:32:05;19.02;;;10.02;;
62997;SDS011;55949;52.590;7.330;2022-10-26T00:33:08;16.38;;;9.40;;
62997;SDS011;55949;52.590;7.330;2022-10-26T00:34:11;19.45;;;10.02;;
62997;SDS011;55949;52.590;7.330;2022-10-26T00:35:12;18.23;;;9.10;;
62997;SDS011;55949;52.590;7.330;2022-10-26T00:36:12;18.48;;;9.80;;
62997;SDS011;55949;52.590;7.330;2022-10-26T00:37:15;18.02;;;10.07;;
62997;SDS011;55949;52.590;7.330;2022-10-26T00:38:16;25.55;;;11.18;;
62997;SDS011;55949;52.590;7.330;2022-10-26T00:39:16;13.82;;;9.13;;
62997;SDS011;55949;52.590;7.330;2022-10-26T00:40:17;17.42;;;9.35;;
62997;SDS011;55949;52.590;7.330;2022-10-26T00:41:19;13.52;;;8.20;;
62997;SDS011;55949;52.590;7.330;2022-10-26T00:42:24;14.13;;;8.30;;
62997;SDS011;55949;52.590;7.330;2022-10-26T00:45:48;16.45;;;7.95;;
62997;SDS011;55949;52.590;7.330;2022-10-26T00:46:50;15.90;;;8.07;;
62997;SDS011;55949;52.590;7.330;2022-10-26T00:47:52;13.68;;;8.10;;
62997;SDS011;55949;52.590;7.330;2022-10-26T00:49:07;11.57;;;7.63;;
62997;SDS011;55949;52.590;7.330;2022-10-26T00:50:14;16.33;;;8.63;;
62997;SDS011;55949;52.590;7.330;2022-10-26T00:51:21;13.30;;;8.55;;
62997;SDS011;55949;52.590;7.330;2022-10-26T00:52:49;14.68;;;8.55;;
62997;SDS011;55949;52.590;7.330;2022-10-26T00:53:51;15.00;;;7.88;;
62997;SDS011;55949;52.590;7.330;2022-10-26T00:54:53;11.77;;;7.35;;
62997;SDS011;55949;52.590;7.330;2022-10-26T00:55:54;12.75;;;8.63;;
62997;SDS011;55949;52.590;7.330;2022-10-26T00:56:56;14.02;;;7.57;;
62997;SDS011;55949;52.590;7.330;2022-10-26T00:57:56;12.10;;;6.53;;
62997;SDS011;55949;52.590;7.330;2022-10-26T00:58:59;14.23;;;7.72;;
62997;SDS011;55949;52.590;7.330;2022-10-26T01:00:03;14.20;;;8.48;;
62997;SDS011;55949;52.590;7.330;2022-10-26T01:01:06;13.10;;;8.18;;
62997;SDS011;55949;52.590;7.330;2022-10-26T01:02:07;14.18;;;8.02;;
62997;SDS011;55949;52.590;7.330;2022-10-26T01:03:08;14.45;;;7.72;;
62997;SDS011;55949;52.590;7.330;2022-10-26T01:04:09;16.85;;;8.05;;
62997;SDS011;55949;52.590;7.330;2022-10-26T01:05:13;12.45;;;8.10;;
62997;SDS011;55949;52.590;7.330;2022-10-26T01:06:16;14.70;;;8.52;;
62997;SDS011;55949;52.590;7.330;2022-10-26T01:07:16;14.60;;;8.90;;
62997;SDS011;55949;52.590;7.330;2022-10-26T01:08:17;17.80;;;9.25;;
62997;SDS011;55949;52.590;7.330;2022-10-26T01:09:19;19.58;;;9.40;;
62997;SDS011;55949;52.590;7.330;2022-10-26T01:10:20;16.88;;;9.23;;
62997;SDS011;55949;52.590;7.330;2022-10-26T01:11:22;18.35;;;9.32;;
62997;SDS011;55949;52.590;7.330;2022-10-26T01:12:22;20.35;;;9.50;;
62997;SDS011;55949;52.590;7.330;2022-10-26T01:13:24;19.02;;;10.13;;
62997;SDS011;55949;52.590;7.330;2022-10-26T01:14:27;18.98;;;10.75;;
62997;SDS011;55949;52.590;7.330;2022-10-26T01:15:37;18.00;;;10.23;;
62997;SDS011;55949;52.590;7.330;2022-10-26T01:16:52;16.58;;;10.20;;
62997;SDS011;55949;52.590;7.330;2022-10-26T01:18:12;16.73;;;9.35;;
62997;SDS011;55949;52.590;7.330;2022-10-26T01:22:14;16.98;;;9.43;;
62997;SDS011;55949;52.590;7.330;2022-10-26T01:23:28;15.93;;;9.45;;
62997;SDS011;55949;52.590;7.330;2022-10-26T01:24:51;17.00;;;9.02;;
62997;SDS011;55949;52.590;7.330;2022-10-26T01:27:46;20.92;;;9.60;;
62997;SDS011;55949;52.590;7.330;2022-10-26T01:31:18;18.35;;;10.82;;
62997;SDS011;55949;52.590;7.330;2022-10-26T01:32:26;20.15;;;10.45;;
62997;SDS011;55949;52.590;7.330;2022-10-26T01:33:43;18.27;;;9.73;;
62997;SDS011;55949;52.590;7.330;2022-10-26T01:34:47;18.90;;;9.77;;
62997;SDS011;55949;52.590;7.330;2022-10-26T01:36:04;15.00;;;9.40;;
62997;SDS011;55949;52.590;7.330;2022-10-26T01:37:22;20.77;;;10.45;;
62997;SDS011;55949;52.590;7.330;2022-10-26T01:39:54;18.65;;;9.98;;
62997;SDS011;55949;52.590;7.330;2022-10-26T01:41:12;20.17;;;10.65;;
62997;SDS011;55949;52.590;7.330;2022-10-26T01:42:20;17.00;;;9.80;;
62997;SDS011;55949;52.590;7.330;2022-10-26T01:43:22;17.13;;;9.48;;
62997;SDS011;55949;52.590;7.330;2022-10-26T01:44:28;18.75;;;9.68;;
62997;SDS011;55949;52.590;7.330;2022-10-26T01:45:42;18.90;;;10.82;;
62997;SDS011;55949;52.590;7.330;2022-10-26T01:46:46;18.23;;;10.40;;
62997;SDS011;55949;52.590;7.330;2022-10-26T01:47:50;18.38;;;10.10;;
62997;SDS011;55949;52.590;7.330;2022-10-26T01:48:54;17.60;;;9.88;;
62997;SDS011;55949;52.590;7.330;2022-10-26T01:50:00;18.98;;;9.30;;
62997;SDS011;55949;52.590;7.330;2022-10-26T01:51:04;17.23;;;10.25;;
62997;SDS011;55949;52.590;7.330;2022-10-26T01:52:07;18.55;;;9.40;;
62997;SDS011;55949;52.590;7.330;2022-10-26T01:53:12;25.73;;;10.00;;
62997;SDS011;55949;52.590;7.330;2022-10-26T01:54:14;18.95;;;9.68;;
62997;SDS011;55949;52.590;7.330;2022-10-26T01:56:41;16.85;;;9.65;;
62997;SDS011;55949;52.590;7.330;2022-10-26T01:57:49;18.13;;;10.10;;
62997;SDS011;55949;52.590;7.330;2022-10-26T02:00:22;15.82;;;9.27;;
62997;SDS011;55949;52.590;7.330;2022-10-26T02:06:18;15.15;;;8.18;;
62997;SDS011;55949;52.590;7.330;2022-10-26T02:11:08;12.35;;;8.00;;
62997;SDS011;55949;52.590;7.330;2022-10-26T02:14:06;14.48;;;8.35;;
62997;SDS011;55949;52.590;7.330;2022-10-26T02:16:18;13.85;;;7.03;;
62997;SDS011;55949;52.590;7.330;2022-10-26T02:17:28;13.80;;;7.30;;
62997;SDS011;55949;52.590;7.330;2022-10-26T02:19:37;20.10;;;9.07;;
62997;SDS011;55949;52.590;7.330;2022-10-26T02:20:46;15.27;;;8.60;;
62997;SDS011;55949;52.590;7.330;2022-10-26T02:21:51;16.10;;;8.02;;
62997;SDS011;55949;52.590;7.330;2022-10-26T02:22:56;17.10;;;8.35;;
62997;SDS011;55949;52.590;7.330;2022-10-26T02:24:01;14.48;;;8.85;;
62997;SDS011;55949;52.590;7.330;2022-10-26T02:25:10;19.65;;;8.65;;
62997;SDS011;55949;52.590;7.330;2022-10-26T02:26:15;17.63;;;8.02;;
62997;SDS011;55949;52.590;7.330;2022-10-26T02:27:27;17.88;;;9.13;;
62997;SDS011;55949;52.590;7.330;2022-10-26T02:28:32;13.57;;;7.95;;
62997;SDS011;55949;52.590;7.330;2022-10-26T02:29:36;15.73;;;9.55;;
62997;SDS011;55949;52.590;7.330;2022-10-26T02:30:38;13.18;;;7.80;;
62997;SDS011;55949;52.590;7.330;2022-10-26T02:31:42;15.98;;;9.02;;
62997;SDS011;55949;52.590;7.330;2022-10-26T02:32:45;15.82;;;8.27;;
62997;SDS011;55949;52.590;7.330;2022-10-26T02:33:49;16.73;;;8.75;;
62997;SDS011;55949;52.590;7.330;2022-10-26T02:34:52;15.48;;;7.93;;
62997;SDS011;55949;52.590;7.330;2022-10-26T02:35:54;16.40;;;7.88;;
62997;SDS011;55949;52.590;7.330;2022-10-26T02:36:58;13.73;;;7.65;;
62997;SDS011;55949;52.590;7.330;2022-10-26T02:38:01;14.52;;;8.90;;
62997;SDS011;55949;52.590;7.330;2022-10-26T02:39:06;20.80;;;8.73;;
62997;SDS011;55949;52.590;7.330;2022-10-26T02:40:10;15.57;;;7.78;;
62997;SDS011;55949;52.590;7.330;2022-10-26T02:41:15;12.95;;;7.80;;
62997;SDS011;55949;52.590;7.330;2022-10-26T02:42:17;13.07;;;8.48;;
62997;SDS011;55949;52.590;7.330;2022-10-26T02:43:19;19.25;;;9.00;;
62997;SDS011;55949;52.590;7.330;2022-10-26T02:44:23;11.07;;;7.32;;
62997;SDS011;55949;52.590;7.330;2022-10-26T02:45:30;15.02;;;8.57;;
62997;SDS011;55949;52.590;7.330;2022-10-26T02:46:42;13.38;;;7.82;;
62997;SDS011;55949;52.590;7.330;2022-10-26T02:47:43;13.68;;;7.95;;
62997;SDS011;55949;52.590;7.330;2022-10-26T02:48:44;12.23;;;7.93;;
62997;SDS011;55949;52.590;7.330;2022-10-26T02:49:45;16.20;;;8.68;;
62997;SDS011;55949;52.590;7.330;2022-10-26T02:50:59;17.95;;;8.15;;
62997;SDS011;55949;52.590;7.330;2022-10-26T02:54:47;13.60;;;7.10;;
62997;SDS011;55949;52.590;7.330;2022-10-26T02:56:16;15.45;;;7.40;;
62997;SDS011;55949;52.590;7.330;2022-10-26T02:57:33;12.98;;;7.25;;
62997;SDS011;55949;52.590;7.330;2022-10-26T02:58:40;13.05;;;7.75;;
62997;SDS011;55949;52.590;7.330;2022-10-26T02:59:45;15.05;;;7.80;;
62997;SDS011;55949;52.590;7.330;2022-10-26T03:00:46;13.82;;;7.70;;
62997;SDS011;55949;52.590;7.330;2022-10-26T03:01:49;14.80;;;8.27;;
62997;SDS011;55949;52.590;7.330;2022-10-26T03:02:52;12.00;;;7.95;;
62997;SDS011;55949;52.590;7.330;2022-10-26T03:04:01;14.60;;;7.78;;
62997;SDS011;55949;52.590;7.330;2022-10-26T03:05:05;16.00;;;7.95;;
62997;SDS011;55949;52.590;7.330;2022-10-26T03:06:10;18.73;;;8.27;;
62997;SDS011;55949;52.590;7.330;2022-10-26T03:07:11;14.73;;;8.50;;
62997;SDS011;55949;52.590;7.330;2022-10-26T03:08:11;14.25;;;8.07;;
62997;SDS011;55949;52.590;7.330;2022-10-26T03:09:12;13.93;;;7.82;;
62997;SDS011;55949;52.590;7.330;2022-10-26T03:10:13;13.52;;;7.95;;
62997;SDS011;55949;52.590;7.330;2022-10-26T03:11:14;13.88;;;8.23;;
62997;SDS011;55949;52.590;7.330;2022-10-26T03:12:15;17.02;;;8.23;;
62997;SDS011;55949;52.590;7.330;2022-10-26T03:13:15;15.23;;;7.55;;
62997;SDS011;55949;52.590;7.330;2022-10-26T03:14:16;15.55;;;7.72;;
62997;SDS011;55949;52.590;7.330;2022-10-26T03:15:17;15.32;;;7.82;;
62997;SDS011;55949;52.590;7.330;2022-10-26T03:16:17;15.27;;;8.05;;
62997;SDS011;55949;52.590;7.330;2022-10-26T03:17:18;15.30;;;7.70;;
62997;SDS011;55949;52.590;7.330;2022-10-26T03:18:19;17.50;;;8.30;;
62997;SDS011;55949;52.590;7.330;2022-10-26T03:19:19;12.65;;;7.68;;
62997;SDS011;55949;52.590;7.330;2022-10-26T03:20:20;13.63;;;8.02;;
62997;SDS011;55949;52.590;7.330;2022-10-26T03:21:21;12.00;;;7.72;;
62997;SDS011;55949;52.590;7.330;2022-10-26T03:22:21;14.10;;;8.23;;
62997;SDS011;55949;52.590;7.330;2022-10-26T03:23:22;17.23;;;8.27;;
62997;SDS011;55949;52.590;7.330;2022-10-26T03:24:23;17.25;;;8.38;;
62997;SDS011;55949;52.590;7.330;2022-10-26T03:25:23;14.77;;;8.48;;
62997;SDS011;55949;52.590;7.330;2022-10-26T03:26:24;13.35;;;7.45;;
62997;SDS011;55949;52.590;7.330;2022-10-26T03:27:25;15.07;;;8.50;;
62997;SDS011;55949;52.590;7.330;2022-10-26T03:28:26;15.15;;;7.70;;
62997;SDS011;55949;52.590;7.330;2022-10-26T03:29:26;16.75;;;7.75;;
62997;SDS011;55949;52.590;7.330;2022-10-26T03:30:27;18.10;;;8.35;;
62997;SDS011;55949;52.590;7.330;2022-10-26T03:31:29;15.25;;;8.38;;
62997;SDS011;55949;52.590;7.330;2022-10-26T03:32:30;17.60;;;7.97;;
62997;SDS011;55949;52.590;7.330;2022-10-26T03:33:30;15.88;;;7.80;;
62997;SDS011;55949;52.590;7.330;2022-10-26T03:34:31;14.52;;;7.97;;
62997;SDS011;55949;52.590;7.330;2022-10-26T03:35:32;15.13;;;7.95;;
62997;SDS011;55949;52.590;7.330;2022-10-26T03:36:32;14.25;;;7.18;;
62997;SDS011;55949;52.590;7.330;2022-10-26T03:37:33;19.48;;;8.50;;
62997;SDS011;55949;52.590;7.330;2022-10-26T03:38:34;13.80;;;8.02;;
62997;SDS011;55949;52.590;7.330;2022-10-26T03:39:35;13.13;;;8.02;;
62997;SDS011;55949;52.590;7.330;2022-10-26T03:40:35;15.90;;;7.75;;
62997;SDS011;55949;52.590;7.330;2022-10-26T03:41:36;20.25;;;8.20;;
62997;SDS011;55949;52.590;7.330;2022-10-26T03:42:37;13.85;;;7.88;;
62997;SDS011;55949;52.590;7.330;2022-10-26T03:43:39;16.00;;;7.78;;
62997;SDS011;55949;52.590;7.330;2022-10-26T03:44:39;14.32;;;8.10;;
62997;SDS011;55949;52.590;7.330;2022-10-26T03:45:40;14.85;;;7.13;;
62997;SDS011;55949;52.590;7.330;2022-10-26T03:46:41;12.10;;;6.97;;
62997;SDS011;55949;52.590;7.330;2022-10-26T03:47:42;11.80;;;7.00;;
62997;SDS011;55949;52.590;7.330;2022-10-26T03:48:44;15.13;;;7.40;;
62997;SDS011;55949;52.590;7.330;2022-10-26T03:49:44;10.48;;;6.30;;
62997;SDS011;55949;52.590;7.330;2022-10-26T03:50:45;13.90;;;6.97;;
62997;SDS011;55949;52.590;7.330;2022-10-26T03:51:46;12.75;;;7.20;;
62997;SDS011;55949;52.590;7.330;2022-10-26T03:52:47;15.15;;;7.80;;
62997;SDS011;55949;52.590;7.330;2022-10-26T03:53:49;13.60;;;7.30;;
62997;SDS011;55949;52.590;7.330;2022-10-26T03:54:50;13.02;;;7.53;;
62997;SDS011;55949;52.590;7.330;2022-10-26T03:55:50;15.48;;;8.00;;
62997;SDS011;55949;52.590;7.330;2022-10-26T03:56:51;13.68;;;7.53;;
62997;SDS011;55949;52.590;7.330;2022-10-26T03:57:52;12.07;;;7.70;;
62997;SDS011;55949;52.590;7.330;2022-10-26T03:58:52;12.30;;;6.82;;
62997;SDS011;55949;52.590;7.330;2022-10-26T03:59:53;13.30;;;7.80;;
62997;SDS011;55949;52.590;7.330;2022-10-26T04:00:54;17.08;;;8.15;;
62997;SDS011;55949;52.590;7.330;2022-10-26T04:01:54;14.30;;;7.85;;
62997;SDS011;55949;52.590;7.330;2022-10-26T04:02:56;11.30;;;6.35;;
62997;SDS011;55949;52.590;7.330;2022-10-26T04:03:58;13.68;;;6.95;;
62997;SDS011;55949;52.590;7.330;2022-10-26T04:04:59;14.07;;;7.75;;
62997;SDS011;55949;52.590;7.330;2022-10-26T04:06:00;15.43;;;6.90;;
62997;SDS011;55949;52.590;7.330;2022-10-26T04:07:01;13.90;;;7.05;;
62997;SDS011;55949;52.590;7.330;2022-10-26T04:08:02;14.18;;;6.90;;
62997;SDS011;55949;52.590;7.330;2022-10-26T04:09:03;15.20;;;7.72;;
62997;SDS011;55949;52.590;7.330;2022-10-26T04:10:04;12.32;;;7.07;;
62997;SDS011;55949;52.590;7.330;2022-10-26T04:11:05;13.05;;;7.15;;
62997;SDS011;55949;52.590;7.330;2022-10-26T04:12:06;16.52;;;6.97;;
62997;SDS011;55949;52.590;7.330;2022-10-26T04:13:08;12.88;;;7.38;;
62997;SDS011;55949;52.590;7.330;2022-10-26T04:14:10;16.25;;;7.57;;
62997;SDS011;55949;52.590;7.330;2022-10-26T04:15:11;16.13;;;7.22;;
62997;SDS011;55949;52.590;7.330;2022-10-26T04:16:11;12.00;;;6.88;;
62997;SDS011;55949;52.590;7.330;2022-10-26T04:17:12;13.95;;;7.63;;
62997;SDS011;55949;52.590;7.330;2022-10-26T04:18:13;14.30;;;7.32;;
62997;SDS011;55949;52.590;7.330;2022-10-26T04:19:13;14.88;;;7.47;;
62997;SDS011;55949;52.590;7.330;2022-10-26T04:20:14;11.07;;;7.13;;
62997;SDS011;55949;52.590;7.330;2022-10-26T04:21:15;13.80;;;6.90;;
62997;SDS011;55949;52.590;7.330;2022-10-26T04:22:15;17.50;;;7.65;;
62997;SDS011;55949;52.590;7.330;2022-10-26T04:23:17;14.05;;;7.68;;
62997;SDS011;55949;52.590;7.330;2022-10-26T04:24:18;15.70;;;7.30;;
62997;SDS011;55949;52.590;7.330;2022-10-26T04:25:19;17.55;;;7.07;;
62997;SDS011;55949;52.590;7.330;2022-10-26T04:26:19;12.40;;;7.30;;
62997;SDS011;55949;52.590;7.330;2022-10-26T04:27:20;14.25;;;7.53;;
62997;SDS011;55949;52.590;7.330;2022-10-26T04:28:21;11.02;;;7.15;;
62997;SDS011;55949;52.590;7.330;2022-10-26T04:29:22;13.48;;;7.30;;
62997;SDS011;55949;52.590;7.330;2022-10-26T04:30:22;12.98;;;6.55;;
62997;SDS011;55949;52.590;7.330;2022-10-26T04:31:23;12.05;;;7.32;;
62997;SDS011;55949;52.590;7.330;2022-10-26T04:32:24;13.25;;;7.20;;
62997;SDS011;55949;52.590;7.330;2022-10-26T04:33:25;10.32;;;6.20;;
62997;SDS011;55949;52.590;7.330;2022-10-26T04:34:25;17.20;;;6.50;;
62997;SDS011;55949;52.590;7.330;2022-10-26T04:35:26;13.63;;;7.82;;
62997;SDS011;55949;52.590;7.330;2022-10-26T04:36:28;11.55;;;6.65;;
62997;SDS011;55949;52.590;7.330;2022-10-26T04:37:29;11.00;;;6.43;;
62997;SDS011;55949;52.590;7.330;2022-10-26T04:38:30;14.05;;;6.35;;
62997;SDS011;55949;52.590;7.330;2022-10-26T04:39:31;14.45;;;6.57;;
62997;SDS011;55949;52.590;7.330;2022-10-26T04:40:32;12.00;;;5.80;;
62997;SDS011;55949;52.590;7.330;2022-10-26T04:41:34;11.57;;;6.63;;
62997;SDS011;55949;52.590;7.330;2022-10-26T04:42:41;12.00;;;6.03;;
62997;SDS011;55949;52.590;7.330;2022-10-26T04:43:43;11.63;;;6.07;;
62997;SDS011;55949;52.590;7.330;2022-10-26T04:44:43;7.88;;;5.13;;
62997;SDS011;55949;52.590;7.330;2022-10-26T04:45:44;11.05;;;6.25;;
62997;SDS011;55949;52.590;7.330;2022-10-26T04:46:45;12.88;;;6.47;;
62997;SDS011;55949;52.590;7.330;2022-10-26T04:47:45;7.57;;;5.47;;
62997;SDS011;55949;52.590;7.330;2022-10-26T04:48:46;11.30;;;6.40;;
62997;SDS011;55949;52.590;7.330;2022-10-26T04:49:47;9.27;;;5.70;;
62997;SDS011;55949;52.590;7.330;2022-10-26T04:50:48;11.63;;;5.30;;
62997;SDS011;55949;52.590;7.330;2022-10-26T04:51:48;11.50;;;5.28;;
62997;SDS011;55949;52.590;7.330;2022-10-26T04:52:49;9.10;;;5.50;;
62997;SDS011;55949;52.590;7.330;2022-10-26T04:53:52;9.63;;;5.53;;
62997;SDS011;55949;52.590;7.330;2022-10-26T04:54:53;7.22;;;4.72;;
62997;SDS011;55949;52.590;7.330;2022-10-26T04:55:55;9.43;;;4.90;;
62997;SDS011;55949;52.590;7.330;2022-10-26T04:56:56;9.65;;;5.47;;
62997;SDS011;55949;52.590;7.330;2022-10-26T04:57:57;10.25;;;5.30;;
62997;SDS011;55949;52.590;7.330;2022-10-26T04:58:58;11.73;;;5.55;;
62997;SDS011;55949;52.590;7.330;2022-10-26T04:59:59;8.57;;;5.78;;
62997;SDS011;55949;52.590;7.330;2022-10-26T05:01:00;9.98;;;5.57;;
62997;SDS011;55949;52.590;7.330;2022-10-26T05:02:02;10.90;;;6.15;;
62997;SDS011;55949;52.590;7.330;2022-10-26T05:03:04;8.95;;;5.30;;
62997;SDS011;55949;52.590;7.330;2022-10-26T05:04:05;10.15;;;5.88;;
62997;SDS011;55949;52.590;7.330;2022-10-26T05:05:06;14.57;;;6.25;;
62997;SDS011;55949;52.590;7.330;2022-10-26T05:06:07;10.80;;;5.88;;
62997;SDS011;55949;52.590;7.330;2022-10-26T05:07:08;11.10;;;5.72;;
62997;SDS011;55949;52.590;7.330;2022-10-26T05:08:08;12.23;;;5.93;;
62997;SDS011;55949;52.590;7.330;2022-10-26T05:09:09;11.70;;;6.47;;
62997;SDS011;55949;52.590;7.330;2022-10-26T05:10:10;12.73;;;6.20;;
62997;SDS011;55949;52.590;7.330;2022-10-26T05:11:11;11.38;;;6.35;;
62997;SDS011;55949;52.590;7.330;2022-10-26T05:12:12;10.38;;;5.95;;
62997;SDS011;55949;52.590;7.330;2022-10-26T05:13:12;9.98;;;5.60;;
62997;SDS011;55949;52.590;7.330;2022-10-26T05:14:13;9.48;;;5.75;;
62997;SDS011;55949;52.590;7.330;2022-10-26T05:15:14;10.57;;;6.22;;
62997;SDS011;55949;52.590;7.330;2022-10-26T05:16:14;11.75;;;6.03;;
62997;SDS011;55949;52.590;7.330;2022-10-26T05:17:15;9.07;;;5.72;;
62997;SDS011;55949;52.590;7.330;2022-10-26T05:18:16;10.93;;;6.05;;
62997;SDS011;55949;52.590;7.330;2022-10-26T05:19:16;12.07;;;6.18;;
62997;SDS011;55949;52.590;7.330;2022-10-26T05:20:17;10.45;;;5.57;;
62997;SDS011;55949;52.590;7.330;2022-10-26T05:21:18;9.35;;;6.15;;
62997;SDS011;55949;52.590;7.330;2022-10-26T05:22:18;11.50;;;6.43;;
62997;SDS011;55949;52.590;7.330;2022-10-26T05:23:19;10.93;;;5.82;;
62997;SDS011;55949;52.590;7.330;2022-10-26T05:24:20;10.20;;;6.03;;
62997;SDS011;55949;52.590;7.330;2022-10-26T05:25:21;11.35;;;6.10;;
62997;SDS011;55949;52.590;7.330;2022-10-26T05:26:22;12.43;;;6.03;;
62997;SDS011;55949;52.590;7.330;2022-10-26T05:27:23;9.32;;;5.78;;
62997;SDS011;55949;52.590;7.330;2022-10-26T05:28:24;11.40;;;6.30;;
62997;SDS011;55949;52.590;7.330;2022-10-26T05:29:25;9.82;;;5.90;;
62997;SDS011;55949;52.590;7.330;2022-10-26T05:30:26;11.55;;;5.95;;
62997;SDS011;55949;52.590;7.330;2022-10-26T05:31:28;8.02;;;5.32;;
62997;SDS011;55949;52.590;7.330;2022-10-26T05:32:28;9.43;;;5.57;;
62997;SDS011;55949;52.590;7.330;2022-10-26T05:33:29;8.93;;;5.60;;
62997;SDS011;55949;52.590;7.330;2022-10-26T05:34:30;9.88;;;6.15;;
62997;SDS011;55949;52.590;7.330;2022-10-26T05:35:31;9.43;;;5.70;;
62997;SDS011;55949;52.590;7.330;2022-10-26T05:36:32;12.27;;;5.35;;
62997;SDS011;55949;52.590;7.330;2022-10-26T05:37:32;10.48;;;5.80;;
62997;SDS011;55949;52.590;7.330;2022-10-26T05:38:33;14.73;;;5.38;;
62997;SDS011;55949;52.590;7.330;2022-10-26T05:39:34;12.75;;;5.85;;
62997;SDS011;55949;52.590;7.330;2022-10-26T05:40:35;8.38;;;5.15;;
62997;SDS011;55949;52.590;7.330;2022-10-26T05:41:35;10.63;;;6.43;;
62997;SDS011;55949;52.590;7.330;2022-10-26T05:42:36;8.05;;;5.30;;
62997;SDS011;55949;52.590;7.330;2022-10-26T05:43:37;8.60;;;5.10;;
62997;SDS011;55949;52.590;7.330;2022-10-26T05:44:38;12.20;;;5.93;;
62997;SDS011;55949;52.590;7.330;2022-10-26T05:45:39;10.73;;;4.88;;
62997;SDS011;55949;52.590;7.330;2022-10-26T05:46:39;11.77;;;5.72;;
62997;SDS011;55949;52.590;7.330;2022-10-26T05:47:40;10.57;;;5.45;;
62997;SDS011;55949;52.590;7.330;2022-10-26T05:48:43;12.13;;;5.20;;
62997;SDS011;55949;52.590;7.330;2022-10-26T05:49:43;9.07;;;5.07;;
62997;SDS011;55949;52.590;7.330;2022-10-26T05:50:44;8.57;;;4.80;;
62997;SDS011;55949;52.590;7.330;2022-10-26T05:51:45;9.30;;;5.53;;
62997;SDS011;55949;52.590;7.330;2022-10-26T05:52:46;10.25;;;5.10;;
62997;SDS011;55949;52.590;7.330;2022-10-26T05:53:50;10.82;;;5.47;;
62997;SDS011;55949;52.590;7.330;2022-10-26T05:54:53;11.43;;;5.53;;
62997;SDS011;55949;52.590;7.330;2022-10-26T05:55:54;10.40;;;5.75;;
62997;SDS011;55949;52.590;7.330;2022-10-26T05:56:56;9.63;;;5.20;;
62997;SDS011;55949;52.590;7.330;2022-10-26T05:57:57;9.95;;;4.95;;
62997;SDS011;55949;52.590;7.330;2022-10-26T05:58:58;12.07;;;5.82;;
62997;SDS011;55949;52.590;7.330;2022-10-26T05:59:59;10.10;;;5.70;;
62997;SDS011;55949;52.590;7.330;2022-10-26T06:02:23;11.27;;;5.38;;
62997;SDS011;55949;52.590;7.330;2022-10-26T06:05:58;8.85;;;4.90;;
62997;SDS011;55949;52.590;7.330;2022-10-26T06:06:59;7.65;;;4.60;;
62997;SDS011;55949;52.590;7.330;2022-10-26T06:08:01;8.63;;;4.50;;
62997;SDS011;55949;52.590;7.330;2022-10-26T06:09:08;7.50;;;4.60;;
62997;SDS011;55949;52.590;7.330;2022-10-26T06:10:11;9.98;;;5.07;;
62997;SDS011;55949;52.590;7.330;2022-10-26T06:11:12;11.25;;;5.20;;
62997;SDS011;55949;52.590;7.330;2022-10-26T06:12:13;10.20;;;4.85;;
62997;SDS011;55949;52.590;7.330;2022-10-26T06:13:14;10.63;;;4.82;;
62997;SDS011;55949;52.590;7.330;2022-10-26T06:14:15;7.03;;;4.50;;
62997;SDS011;55949;52.590;7.330;2022-10-26T06:15:19;10.02;;;5.07;;
62997;SDS011;55949;52.590;7.330;2022-10-26T06:16:36;7.80;;;4.13;;
62997;SDS011;55949;52.590;7.330;2022-10-26T06:17:42;7.53;;;4.18;;
62997;SDS011;55949;52.590;7.330;2022-10-26T06:23:54;9.98;;;4.97;;
62997;SDS011;55949;52.590;7.330;2022-10-26T06:25:21;11.68;;;4.88;;
62997;SDS011;55949;52.590;7.330;2022-10-26T06:27:43;5.75;;;3.90;;
62997;SDS011;55949;52.590;7.330;2022-10-26T06:29:59;8.52;;;4.50;;
62997;SDS011;55949;52.590;7.330;2022-10-26T06:31:14;8.75;;;4.00;;
62997;SDS011;55949;52.590;7.330;2022-10-26T06:32:15;7.03;;;4.32;;
62997;SDS011;55949;52.590;7.330;2022-10-26T06:33:16;10.65;;;4.80;;
62997;SDS011;55949;52.590;7.330;2022-10-26T06:34:20;5.78;;;3.72;;
62997;SDS011;55949;52.590;7.330;2022-10-26T06:36:42;8.32;;;4.47;;
62997;SDS011;55949;52.590;7.330;2022-10-26T06:37:43;8.88;;;4.22;;
62997;SDS011;55949;52.590;7.330;2022-10-26T06:38:45;7.13;;;4.28;;
62997;SDS011;55949;52.590;7.330;2022-10-26T06:39:48;6.32;;;3.58;;
62997;SDS011;55949;52.590;7.330;2022-10-26T06:40:50;9.18;;;4.45;;
62997;SDS011;55949;52.590;7.330;2022-10-26T06:41:55;9.40;;;4.90;;
62997;SDS011;55949;52.590;7.330;2022-10-26T06:42:57;7.75;;;4.00;;
62997;SDS011;55949;52.590;7.330;2022-10-26T06:43:58;9.02;;;4.65;;
62997;SDS011;55949;52.590;7.330;2022-10-26T06:45:01;7.90;;;4.75;;
62997;SDS011;55949;52.590;7.330;2022-10-26T06:46:06;8.38;;;4.57;;
62997;SDS011;55949;52.590;7.330;2022-10-26T06:48:32;7.32;;;4.40;;
62997;SDS011;55949;52.590;7.330;2022-10-26T06:50:05;6.13;;;3.67;;
62997;SDS011;55949;52.590;7.330;2022-10-26T06:51:16;6.40;;;4.03;;
62997;SDS011;55949;52.590;7.330;2022-10-26T06:52:25;7.32;;;3.90;;
62997;SDS011;55949;52.590;7.330;2022-10-26T06:53:59;7.40;;;3.50;;
62997;SDS011;55949;52.590;7.330;2022-10-26T06:55:41;4.90;;;3.28;;
62997;SDS011;55949;52.590;7.330;2022-10-26T06:56:44;5.47;;;3.80;;
62997;SDS011;55949;52.590;7.330;2022-10-26T06:57:45;8.77;;;4.30;;
62997;SDS011;55949;52.590;7.330;2022-10-26T06:58:47;6.30;;;3.85;;